Time;durP1;ratioP1;P1;durP2;ratioP2;P2;SDS_P1;SDS_P2;PMS_P1;PMS_P2;Temp;Humidity;BMP_temperature;BMP_pressure;BME280_temperature;BME280_humidity;BME280_pressure;Samples;Min_cycle;Max_cycle;Signal;HPM_P1;HPM_P2
2022/06/05 00:01:59;;;;;;;8.15;5.97;;;;;;;29.03;39.18;101291.53;143709;576;48008;-74
2022/06/05 00:04:53;;;;;;;13.45;6.25;;;;;;;29.07;38.95;101279.84;143713;610;47012;-75
2022/06/05 00:07:39;;;;;;;9.05;5.53;;;;;;;29.04;39.67;101284.06;143710;579;48010;-74
2022/06/05 00:10:22;;;;;;;7.47;5.95;;;;;;;29.01;39.21;101281.91;143707;586;47008;-74
2022/06/05 00:13:04;;;;;;;17.75;6.20;;;;;;;29.06;39.09;101284.56;143712;573;47010;-75
2022/06/05 00:15:32;;;;;;;8.48;5.10;;;;;;;29.13;39.16;101281.37;143720;669;47006;-76
2022/06/05 00:18:00;;;;;;;9.13;6.12;;;;;;;29.11;39.21;101278.94;143709;567;47010;-76
2022/06/05 00:20:26;;;;;;;11.45;5.82;;;;;;;29.10;39.25;101288.34;143713;573;47019;-76
2022/06/05 00:22:52;;;;;;;10.38;5.93;;;;;;;29.13;38.59;101287.72;143708;599;49004;-75
2022/06/05 00:25:20;;;;;;;9.88;5.70;;;;;;;29.13;38.84;101284.94;143706;581;50008;-76
2022/06/05 00:28:22;;;;;;;6.82;5.50;;;;;;;29.10;38.85;101290.28;143715;647;48004;-76
2022/06/05 00:31:40;;;;;;;9.85;5.75;;;;;;;29.09;38.88;101283.94;143708;589;48007;-76
2022/06/05 00:34:18;;;;;;;8.02;6.03;;;;;;;29.07;39.47;101279.84;143711;585;49002;-75
2022/06/05 00:37:23;;;;;;;10.88;6.32;;;;;;;29.06;39.52;101284.56;143711;573;48006;-75
2022/06/05 00:40:43;;;;;;;8.68;6.53;;;;;;;29.03;39.24;101279.66;143714;699;48010;-75
2022/06/05 00:43:13;;;;;;;6.55;5.50;;;;;;;28.97;39.21;101275.34;143712;648;47008;-75
2022/06/05 00:45:40;;;;;;;8.45;6.12;;;;;;;28.95;39.36;101272.09;169023;57;47010;-75
2022/06/05 00:48:08;;;;;;;9.32;5.62;;;;;;;28.98;39.48;101272.31;143671;652;94682;-76
2022/06/05 00:50:36;;;;;;;10.52;5.97;;;;;;;28.96;39.82;101277.31;143718;721;47004;-75
2022/06/05 00:53:06;;;;;;;11.80;5.93;;;;;;;29.01;39.47;101277.22;143718;590;48004;-76
2022/06/05 00:55:41;;;;;;;11.10;6.70;;;;;;;29.00;39.11;101275.56;143723;598;47004;-75
2022/06/05 00:58:08;;;;;;;9.50;5.68;;;;;;;28.96;38.65;101276.47;143724;579;47010;-74
2022/06/05 01:00:40;;;;;;;11.85;5.40;;;;;;;28.89;39.34;101274.97;143719;577;47006;-74
2022/06/05 01:03:09;;;;;;;8.23;5.32;;;;;;;28.83;39.03;101270.69;143716;592;47008;-74
2022/06/05 01:05:36;;;;;;;9.98;5.18;;;;;;;28.84;38.27;101272.31;143722;580;47005;-75
2022/06/05 01:08:03;;;;;;;6.85;4.90;;;;;;;28.81;37.63;101277.66;143720;568;47013;-74
2022/06/05 01:11:12;;;;;;;9.25;4.85;;;;;;;28.77;38.12;101269.12;143721;566;47006;-75
2022/06/05 01:14:20;;;;;;;11.43;4.80;;;;;;;28.71;37.78;101268.41;143720;577;47009;-75
2022/06/05 01:17:05;;;;;;;7.28;4.32;;;;;;;28.64;38.16;101268.03;143722;606;47004;-74
2022/06/05 01:19:41;;;;;;;9.50;4.72;;;;;;;28.59;37.66;101259.81;143722;661;47010;-75
2022/06/05 01:22:51;;;;;;;7.12;4.30;;;;;;;28.60;37.62;101264.22;143722;692;47006;-72
2022/06/05 01:25:52;;;;;;;8.13;5.03;;;;;;;28.60;37.42;101267.81;143722;566;47008;-72
2022/06/05 01:28:26;;;;;;;6.47;3.87;;;;;;;28.58;37.27;101261.78;143722;580;47006;-72
2022/06/05 01:31:03;;;;;;;;;;;;;;;28.62;37.03;101255.62;143717;981;50006;-72
2022/06/05 01:33:31;;;;;;;7.93;4.60;;;;;;;28.62;37.08;101256.44;143725;584;47004;-72
2022/06/05 01:36:30;;;;;;;9.27;4.72;;;;;;;28.55;37.37;101265.16;143722;593;47009;-73
2022/06/05 01:39:31;;;;;;;9.95;4.80;;;;;;;28.53;37.76;101266.56;143723;576;47006;-72
2022/06/05 01:42:13;;;;;;;7.72;4.47;;;;;;;28.54;38.19;101265.44;143721;585;47012;-72
2022/06/05 01:44:44;;;;;;;10.88;5.10;;;;;;;28.52;38.43;101271.31;143708;586;50013;-72
2022/06/05 01:47:18;;;;;;;9.43;5.12;;;;;;;28.47;38.82;101267.81;173543;57;47664;-73
2022/06/05 01:49:58;;;;;;;9.80;4.80;;;;;;;28.46;38.97;101271.72;143717;614;48006;-71
2022/06/05 01:52:34;;;;;;;6.45;4.80;;;;;;;28.45;39.12;101273.66;143723;619;47009;-71
2022/06/05 01:55:09;;;;;;;7.28;5.07;;;;;;;28.44;39.35;101263.72;143720;572;47008;-71
2022/06/05 01:57:36;;;;;;;7.05;4.68;;;;;;;28.40;39.66;101265.47;143722;578;47006;-71
2022/06/05 02:00:12;;;;;;;5.78;4.75;;;;;;;28.30;39.62;101263.72;143723;610;47010;-72
2022/06/05 02:02:58;;;;;;;7.03;5.03;;;;;;;28.29;40.14;101264.84;143721;578;47010;-72
2022/06/05 02:05:36;;;;;;;8.48;5.25;;;;;;;28.27;40.12;101264.34;143722;574;47007;-72
2022/06/05 02:08:10;;;;;;;11.07;5.10;;;;;;;28.23;39.89;101266.06;143722;618;47008;-72
2022/06/05 02:10:49;;;;;;;8.05;4.62;;;;;;;28.25;39.51;101266.59;143721;605;47006;-72
2022/06/05 02:13:16;;;;;;;9.57;5.10;;;;;;;28.29;39.25;101268.44;143721;602;47012;-72
2022/06/05 02:15:42;;;;;;;6.68;4.72;;;;;;;28.33;38.74;101267.81;143722;656;47004;-73
2022/06/05 02:18:08;;;;;;;9.82;4.50;;;;;;;28.33;39.09;101265.06;143720;655;47008;-72
2022/06/05 02:20:35;;;;;;;11.07;5.25;;;;;;;28.31;39.28;101264.53;143721;573;47006;-72
2022/06/05 02:23:05;;;;;;;9.38;5.50;;;;;;;28.29;39.10;101268.44;143721;610;47010;-72
2022/06/05 02:25:34;;;;;;;9.18;4.97;;;;;;;28.24;39.85;101263.00;143721;652;47006;-72
2022/06/05 02:28:01;;;;;;;8.40;5.75;;;;;;;28.21;39.59;101266.38;143720;591;47009;-71
2022/06/05 02:31:01;;;;;;;9.05;4.97;;;;;;;28.16;39.54;101260.94;143727;592;46008;-72
2022/06/05 02:34:07;;;;;;;9.50;4.75;;;;;;;28.16;39.91;101260.94;143720;716;48004;-72
2022/06/05 02:36:59;;;;;;;9.23;5.30;;;;;;;28.17;39.84;101257.06;143719;573;47014;-72
2022/06/05 02:39:49;;;;;;;9.40;5.20;;;;;;;28.14;40.55;101257.66;143727;581;47008;-72
2022/06/05 02:43:12;;;;;;;6.78;5.00;;;;;;;28.12;40.26;101270.97;143754;576;46004;-72
2022/06/05 02:46:13;;;;;;;8.73;5.28;;;;;;;28.15;40.20;101273.13;143750;582;47922;-73
2022/06/05 02:49:14;;;;;;;16.02;6.65;;;;;;;28.17;39.55;101268.13;143706;588;77322;-73
2022/06/05 02:51:44;;;;;;;7.57;5.22;;;;;;;28.19;40.41;101274.16;143750;635;45009;-73
2022/06/05 02:54:22;;;;;;;12.35;5.20;;;;;;;28.19;40.24;101279.69;143737;580;49004;-73
2022/06/05 02:56:48;;;;;;;9.32;4.75;;;;;;;28.20;40.21;101283.25;143722;625;47006;-73
2022/06/05 02:59:14;;;;;;;10.10;5.22;;;;;;;28.21;39.71;101282.97;143715;623;48004;-73
2022/06/05 03:04:39;;;;;;;9.60;4.45;;;;;;;28.18;39.72;101293.78;143723;583;47006;-73
2022/06/05 03:07:05;;;;;;;11.05;5.20;;;;;;;28.18;40.14;101296.53;143721;734;49999;-73
2022/06/05 03:09:33;;;;;;;8.90;5.10;;;;;;;28.19;39.78;101303.69;143705;598;52995;-73
2022/06/05 03:11:59;;;;;;;8.25;5.82;;;;;;;28.18;39.65;101299.28;143743;597;48003;-73
2022/06/05 03:14:26;;;;;;;12.65;5.05;;;;;;;28.23;39.62;101299.22;143748;582;46008;-73
2022/06/05 03:16:52;;;;;;;10.20;5.60;;;;;;;28.22;40.39;101305.84;143731;585;48008;-73
2022/06/05 03:19:19;;;;;;;9.70;5.43;;;;;;;28.22;40.60;101298.41;143721;680;47006;-73
2022/06/05 03:21:46;;;;;;;9.00;5.12;;;;;;;28.21;40.34;101302.28;143719;580;47008;-73
2022/06/05 03:24:13;;;;;;;10.30;5.97;;;;;;;28.21;40.43;101302.28;143723;574;48008;-72
2022/06/05 03:26:40;;;;;;;9.90;5.45;;;;;;;28.18;40.68;101296.53;143722;579;47006;-73
2022/06/05 03:29:07;;;;;;;12.95;5.47;;;;;;;28.22;40.92;101289.28;143718;568;47007;-72
2022/06/05 03:31:37;;;;;;;8.98;5.45;;;;;;;28.25;40.99;101294.22;143723;594;47006;-72
2022/06/05 03:34:03;;;;;;;10.85;5.40;;;;;;;28.26;40.90;101296.66;143728;567;47004;-73
2022/06/05 03:36:30;;;;;;;11.85;5.85;;;;;;;28.29;40.82;101306.28;143717;610;48007;-73
2022/06/05 03:38:56;;;;;;;10.45;5.95;;;;;;;28.28;40.19;101302.69;143724;594;47010;-73
2022/06/05 03:41:22;;;;;;;11.75;5.72;;;;;;;28.32;40.62;101305.69;143715;614;48006;-73
2022/06/05 03:43:49;;;;;;;7.60;5.40;;;;;;;28.32;41.00;101307.63;143722;586;47004;-73
2022/06/05 03:46:16;;;;;;;12.70;5.40;;;;;;;28.31;41.54;101309.56;203092;57;55597;-73
2022/06/05 03:48:43;;;;;;;9.68;6.37;;;;;;;28.29;40.95;101304.34;143728;580;47004;-73
2022/06/05 03:51:16;;;;;;;8.82;5.47;;;;;;;28.35;40.92;101305.06;143730;660;47007;-73
2022/06/05 03:53:43;;;;;;;8.57;5.10;;;;;;;28.37;40.21;101297.28;143734;580;47004;-73
2022/06/05 03:56:19;;;;;;;13.27;5.55;;;;;;;28.37;39.99;101300.03;143725;566;47010;-73
2022/06/05 03:58:46;;;;;;;8.25;5.15;;;;;;;28.38;39.59;101300.88;143729;587;47004;-74
2022/06/05 04:01:14;;;;;;;8.27;4.95;;;;;;;28.43;38.98;101300.75;143728;576;47006;-72
2022/06/05 04:03:41;;;;;;;9.65;4.70;;;;;;;28.44;39.45;101297.72;143732;658;47004;-74
2022/06/05 04:06:12;;;;;;;14.93;5.78;;;;;;;28.42;40.68;101299.13;143729;598;47008;-72
2022/06/05 04:08:40;;;;;;;12.52;5.55;;;;;;;28.38;40.68;101290.63;143729;586;47004;-73
2022/06/05 04:11:08;;;;;;;16.67;5.93;;;;;;;28.37;40.65;101299.25;143729;616;47006;-73
2022/06/05 04:13:35;;;;;;;13.70;6.05;;;;;;;28.39;40.27;101295.03;143731;589;47004;-73
2022/06/05 04:16:08;;;;;;;20.95;6.18;;;;;;;28.45;40.75;101301.28;143726;609;47010;-73
2022/06/05 04:18:35;;;;;;;9.27;6.15;;;;;;;28.49;41.17;101307.84;143728;579;47004;-74
2022/06/05 04:21:15;;;;;;;11.63;6.25;;;;;;;28.46;40.81;101305.69;143728;599;47007;-73
2022/06/05 04:23:42;;;;;;;8.57;5.53;;;;;;;28.51;41.01;101297.28;143731;614;47004;-72
2022/06/05 04:26:13;;;;;;;9.63;5.93;;;;;;;28.55;41.48;101309.38;143729;583;47008;-71
2022/06/05 04:28:40;;;;;;;12.02;6.12;;;;;;;28.54;42.08;101296.69;143732;602;46008;-73
2022/06/05 04:31:26;;;;;;;10.60;5.78;;;;;;;28.56;43.00;101299.97;143711;573;53002;-73
2022/06/05 04:33:56;;;;;;;11.70;5.85;;;;;;;28.64;42.50;101305.88;143733;600;47002;-73
2022/06/05 04:36:22;;;;;;;11.15;6.32;;;;;;;28.63;43.97;101304.25;143729;609;47011;-73
2022/06/05 04:38:49;;;;;;;14.80;5.90;;;;;;;28.65;43.38;101300.06;143730;581;47010;-72
2022/06/05 04:41:18;;;;;;;10.32;5.82;;;;;;;28.68;42.88;101301.37;143716;650;47006;-72
2022/06/05 04:43:45;;;;;;;9.93;6.00;;;;;;;28.73;43.09;101304.87;143725;575;47004;-73
2022/06/05 04:46:12;;;;;;;10.38;6.30;;;;;;;28.77;43.03;101293.22;222756;57;47008;-74
2022/06/05 04:48:39;;;;;;;9.43;5.93;;;;;;;28.82;43.16;101295.88;143718;572;47021;-74
2022/06/05 04:51:07;;;;;;;9.95;6.53;;;;;;;28.80;43.36;101300.91;143723;573;47002;-73
2022/06/05 04:53:34;;;;;;;14.82;6.60;;;;;;;28.79;43.70;101300.06;143725;593;47000;-73
2022/06/05 04:56:05;;;;;;;13.88;6.15;;;;;;;28.84;44.20;101307.47;143722;572;48008;-74
2022/06/05 04:58:32;;;;;;;12.55;6.40;;;;;;;28.89;44.88;101312.84;143728;595;46004;-74
2022/06/05 05:00:59;;;;;;;12.60;6.18;;;;;;;28.97;44.83;101311.31;143727;579;46006;-74
2022/06/05 05:03:26;;;;;;;8.98;6.10;;;;;;;29.04;43.99;101314.47;143728;700;46008;-75
2022/06/05 05:05:53;;;;;;;16.05;7.30;;;;;;;29.09;44.15;101316.31;143724;594;48004;-73
2022/06/05 05:08:20;;;;;;;14.38;6.90;;;;;;;29.14;44.35;101317.00;143716;583;47002;-73
2022/06/05 05:10:47;;;;;;;10.95;6.82;;;;;;;29.18;44.01;101309.72;143720;605;47006;-72
2022/06/05 05:13:14;;;;;;;10.65;6.70;;;;;;;29.28;43.81;101310.66;143724;614;47004;-73
2022/06/05 05:15:40;;;;;;;11.23;6.40;;;;;;;29.31;44.42;101318.28;143726;596;46008;-72
2022/06/05 05:18:06;;;;;;;15.13;6.90;;;;;;;29.40;43.65;101318.41;143726;572;46925;-72
2022/06/05 05:20:33;;;;;;;13.38;7.72;;;;;;;29.44;42.15;101311.13;143725;633;46006;-73
2022/06/05 05:22:59;;;;;;;16.90;7.82;;;;;;;29.50;42.45;101305.16;143728;583;46004;-73
2022/06/05 05:25:26;;;;;;;12.25;7.53;;;;;;;29.56;41.66;101307.81;143715;572;47010;-73
2022/06/05 05:27:52;;;;;;;12.50;7.28;;;;;;;29.61;42.03;101314.03;143725;710;48002;-73
2022/06/05 05:30:19;;;;;;;13.30;7.18;;;;;;;29.64;41.50;101302.31;143728;581;46006;-73
2022/06/05 05:32:45;;;;;;;11.93;7.75;;;;;;;29.69;40.68;101298.59;143707;575;49011;-75
2022/06/05 05:35:12;;;;;;;13.45;6.70;;;;;;;29.73;40.29;101307.13;143722;583;47010;-75
2022/06/05 05:37:38;;;;;;;11.05;7.10;;;;;;;29.77;39.92;101306.16;143720;595;47008;-72
2022/06/05 05:42:51;;;;;;;10.38;6.35;;;;;;;29.86;39.66;101308.16;143727;588;47000;-75
2022/06/05 05:45:17;;;;;;;12.73;6.75;;;;;;;29.89;40.34;101308.37;143721;619;49006;-74
2022/06/05 05:47:43;;;;;;;18.35;7.45;;;;;;;29.93;40.48;101308.53;224127;57;48002;-72
2022/06/05 05:50:13;;;;;;;15.02;7.72;;;;;;;29.97;41.28;101309.59;143723;619;47006;-73
2022/06/05 05:52:39;;;;;;;13.93;6.22;;;;;;;30.01;41.11;101304.22;143724;634;47002;-73
2022/06/05 05:55:10;;;;;;;13.75;6.65;;;;;;;30.02;40.79;101303.09;143724;578;47008;-73
2022/06/05 05:57:36;;;;;;;9.38;5.87;;;;;;;30.04;39.77;101301.63;143720;610;47009;-73
2022/06/05 06:00:04;;;;;;;12.63;6.35;;;;;;;30.07;39.96;101305.72;143723;582;47006;-74
2022/06/05 06:02:30;;;;;;;11.43;6.30;;;;;;;30.10;39.46;101310.59;143722;583;47008;-74
2022/06/05 06:04:57;;;;;;;11.27;5.80;;;;;;;30.10;38.23;101303.12;143723;589;47003;-72
2022/06/05 06:07:23;;;;;;;12.85;5.90;;;;;;;30.12;38.57;101308.34;143724;567;47002;-72
2022/06/05 06:09:50;;;;;;;13.25;6.15;;;;;;;30.16;38.26;101300.25;143724;620;47006;-72
2022/06/05 06:12:16;;;;;;;11.68;6.12;;;;;;;30.18;37.73;101297.97;143724;628;48000;-72
2022/06/05 06:14:42;;;;;;;14.38;5.90;;;;;;;30.22;37.51;101304.47;143724;568;47008;-71
2022/06/05 06:17:09;;;;;;;9.20;5.75;;;;;;;30.26;38.39;101308.25;143719;577;49004;-72
2022/06/05 06:19:36;;;;;;;9.25;5.97;;;;;;;30.28;38.21;101306.00;143726;575;47006;-73
2022/06/05 06:22:04;;;;;;;7.57;5.65;;;;;;;30.32;38.20;101308.94;143726;576;47004;-72
2022/06/05 06:24:30;;;;;;;11.00;6.18;;;;;;;30.34;38.50;101309.44;143725;580;47010;-72
2022/06/05 06:26:57;;;;;;;12.13;6.18;;;;;;;30.35;37.57;101308.28;143723;582;47004;-73
2022/06/05 06:29:24;;;;;;;14.68;6.35;;;;;;;30.40;38.00;101300.66;143723;576;47006;-72
2022/06/05 06:31:50;;;;;;;15.35;5.75;;;;;;;30.46;36.52;101301.31;143723;594;47002;-73
2022/06/05 06:34:16;;;;;;;11.60;5.53;;;;;;;30.54;37.41;101296.94;143724;589;47009;-73
2022/06/05 06:36:43;;;;;;;13.43;5.75;;;;;;;30.60;36.86;101297.66;143717;569;48002;-72
2022/06/05 06:39:09;;;;;;;7.60;5.12;;;;;;;30.66;36.34;101293.59;143724;575;47000;-73
2022/06/05 06:41:36;;;;;;;11.50;5.70;;;;;;;30.70;36.37;101289.88;143725;632;47002;-74
2022/06/05 06:44:03;;;;;;;13.70;6.45;;;;;;;30.77;36.85;101288.56;143721;577;47006;-75
2022/06/05 06:46:30;;;;;;;8.77;6.05;;;;;;;30.85;36.90;101287.78;223166;57;47004;-75
2022/06/05 06:48:57;;;;;;;10.32;5.65;;;;;;;30.93;36.42;101286.16;143717;580;47006;-75
2022/06/05 06:51:24;;;;;;;11.88;5.57;;;;;;;30.97;36.02;101273.28;143725;619;47002;-72
2022/06/05 06:53:50;;;;;;;11.05;6.18;;;;;;;31.04;35.96;101272.78;143725;622;46010;-72
2022/06/05 06:56:20;;;;;;;11.23;6.32;;;;;;;31.10;35.83;101271.47;143721;573;47004;-73
2022/06/05 06:58:47;;;;;;;10.00;5.82;;;;;;;31.18;35.93;101269.88;143725;603;46006;-73
2022/06/05 07:01:14;;;;;;;14.95;6.15;;;;;;;31.21;35.08;101270.06;143729;585;46002;-73
2022/06/05 07:03:40;;;;;;;10.30;5.93;;;;;;;31.30;35.38;101268.09;143721;721;48002;-72
2022/06/05 07:06:10;;;;;;;10.77;6.10;;;;;;;31.33;34.29;101263.03;143722;586;47002;-72
2022/06/05 07:08:37;;;;;;;11.45;6.20;;;;;;;31.37;34.84;101256.47;143726;566;46014;-73
2022/06/05 07:11:07;;;;;;;17.83;6.95;;;;;;;31.40;36.29;101258.59;143715;583;50002;-72
2022/06/05 07:13:35;;;;;;;22.37;8.95;;;;;;;31.43;37.43;101254.34;143724;575;47008;-74
2022/06/05 07:16:01;;;;;;;14.45;7.70;;;;;;;31.42;37.84;101258.25;143725;630;47004;-74
2022/06/05 07:18:27;;;;;;;12.98;8.75;;;;;;;31.36;38.47;101262.38;143722;712;49006;-73
2022/06/05 07:20:54;;;;;;;15.70;7.85;;;;;;;31.29;38.64;101249.00;143725;584;47002;-72
2022/06/05 07:23:20;;;;;;;12.15;7.70;;;;;;;31.38;38.57;101251.75;143725;569;47008;-72
2022/06/05 07:25:52;;;;;;;11.20;7.85;;;;;;;31.46;38.31;101245.38;143715;594;48009;-72
2022/06/05 07:28:19;;;;;;;12.82;7.55;;;;;;;31.50;39.01;101248.31;143728;584;46002;-73
2022/06/05 07:30:50;;;;;;;12.60;8.10;;;;;;;31.50;39.96;101248.31;143720;622;49002;-69
2022/06/05 07:33:17;;;;;;;13.90;7.70;;;;;;;31.53;40.91;101242.91;143725;579;46025;-71
2022/06/05 07:35:43;;;;;;;11.02;7.50;;;;;;;31.52;40.69;101252.38;143726;703;47002;-72
2022/06/05 07:38:10;;;;;;;11.18;7.37;;;;;;;31.54;41.01;101243.72;143720;629;47006;-72
2022/06/05 07:40:41;;;;;;;11.80;7.62;;;;;;;31.61;39.69;101250.41;143703;617;51000;-72
2022/06/05 07:43:10;;;;;;;11.57;7.82;;;;;;;31.61;38.41;101247.63;143714;590;48021;-73
2022/06/05 07:45:44;;;;;;;12.00;6.82;;;;;;;31.62;38.97;101242.91;143724;589;48002;-72
2022/06/05 07:48:11;;;;;;;12.63;6.97;;;;;;;31.59;38.50;101235.22;223936;57;47008;-71
2022/06/05 07:54:26;;;;;;;10.20;6.93;;;;;;;31.64;38.05;101240.63;143725;601;47002;-72
2022/06/05 07:56:07;;;;;;;14.50;7.15;;;;;;;31.57;37.37;101245.84;143724;595;47008;-72
2022/06/05 07:58:34;;;;;;;13.15;6.97;;;;;;;31.55;37.89;101235.06;143723;611;47006;-72
2022/06/05 08:01:00;;;;;;;12.00;6.28;;;;;;;31.61;38.02;101239.28;143727;618;47002;-72
2022/06/05 08:03:27;;;;;;;11.98;6.68;;;;;;;31.51;38.29;101236.03;143723;567;47010;-75
2022/06/05 08:05:53;;;;;;;13.00;7.05;;;;;;;31.47;38.68;101235.91;143723;620;47004;-72
2022/06/05 08:08:19;;;;;;;13.55;7.00;;;;;;;31.45;38.13;101236.25;143722;566;47006;-71
2022/06/05 08:10:46;;;;;;;12.50;6.40;;;;;;;31.65;37.43;101239.47;143726;582;47002;-71
2022/06/05 08:13:12;;;;;;;8.52;6.05;;;;;;;31.73;37.93;101240.63;143722;572;47008;-72
2022/06/05 08:15:46;;;;;;;8.57;6.20;;;;;;;31.86;36.75;101236.03;143720;592;47004;-72
2022/06/05 08:18:11;;;;;;;;;;;;;;;31.87;36.59;101240.41;143727;985;47003;-72
2022/06/05 08:20:38;;;;;;;13.77;6.68;;;;;;;31.96;36.53;101240.37;143729;603;47000;-73
2022/06/05 08:23:05;;;;;;;11.82;6.55;;;;;;;32.03;37.19;101238.72;143723;567;47008;-74
2022/06/05 08:25:31;;;;;;;13.23;7.05;;;;;;;32.12;37.28;101238.69;143722;592;47010;-72
2022/06/05 08:27:57;;;;;;;8.52;6.20;;;;;;;32.18;36.87;101234.56;143722;576;47004;-73
2022/06/05 08:30:24;;;;;;;13.43;6.43;;;;;;;32.20;36.58;101234.25;143724;566;47002;-75
2022/06/05 08:32:50;;;;;;;8.50;5.50;;;;;;;32.30;35.95;101236.66;143723;595;47009;-75
2022/06/05 08:35:17;;;;;;;14.68;6.15;;;;;;;32.32;35.46;101236.31;143717;578;49004;-74
2022/06/05 08:44:00;;;;;;;10.52;6.55;;;;;;;32.30;34.61;101231.09;143725;617;47008;-71
2022/06/05 08:46:36;;;;;;;11.95;7.32;;;;;;;32.33;34.09;101224.06;176698;57;48933;-73
2022/06/05 08:49:10;;;;;;;12.25;6.75;;;;;;;32.32;34.25;101228.81;143717;599;52010;-71
2022/06/05 08:52:07;;;;;;;12.35;5.57;;;;;;;32.30;33.97;101228.31;143716;592;49004;-73
2022/06/05 08:55:01;;;;;;;8.73;5.25;;;;;;;32.35;32.19;101224.53;143722;574;47010;-73
2022/06/05 08:57:37;;;;;;;10.30;4.97;;;;;;;32.36;31.71;101215.03;143724;628;47002;-72
2022/06/05 09:00:26;;;;;;;8.68;5.30;;;;;;;32.39;31.33;101219.13;143726;579;47006;-75
2022/06/05 09:03:32;;;;;;;11.55;5.10;;;;;;;32.49;31.61;101215.94;143725;612;47004;-71
2022/06/05 09:06:04;;;;;;;7.30;4.93;;;;;;;32.62;31.33;101219.63;143725;584;47008;-72
2022/06/05 09:08:36;;;;;;;8.38;4.75;;;;;;;32.73;32.17;101217.28;143723;621;47004;-73
2022/06/05 09:11:06;;;;;;;10.43;4.87;;;;;;;32.78;31.83;101215.09;143724;631;47007;-72
2022/06/05 09:14:06;;;;;;;11.55;5.25;;;;;;;32.76;30.76;101202.66;143722;577;47002;-73
2022/06/05 09:16:40;;;;;;;7.75;4.85;;;;;;;32.74;31.89;101213.34;143723;584;47008;-73
2022/06/05 09:19:07;;;;;;;9.77;5.10;;;;;;;32.85;31.52;101209.03;143722;634;47004;-69
2022/06/05 09:21:49;;;;;;;9.35;5.50;;;;;;;32.86;31.66;101215.38;143720;646;48921;-70
2022/06/05 09:24:33;;;;;;;9.75;5.22;;;;;;;32.91;31.34;101199.31;143724;597;47002;-72
2022/06/05 09:27:08;;;;;;;;;;;;;;;32.96;30.90;101195.50;143719;985;49002;-69
2022/06/05 09:29:52;;;;;;;10.63;5.00;;;;;;;32.93;31.14;101190.63;143727;651;47010;-71
2022/06/05 09:32:47;;;;;;;9.20;4.65;;;;;;;32.99;30.58;101194.00;143720;582;46888;-70
2022/06/05 09:35:43;;;;;;;10.60;4.80;;;;;;;33.00;30.77;101190.91;143724;583;47000;-71
2022/06/05 09:38:29;;;;;;;11.30;4.55;;;;;;;33.22;30.52;101192.50;143707;597;50006;-70
2022/06/05 09:41:37;;;;;;;9.50;5.12;;;;;;;33.23;30.11;101187.72;143720;595;47002;-72
2022/06/05 09:45:01;;;;;;;11.70;4.85;;;;;;;33.23;29.22;101188.56;143723;684;47006;-69
2022/06/05 09:47:49;;;;;;;11.35;5.35;;;;;;;33.17;29.53;101180.75;200034;57;48997;-69
2022/06/05 09:50:25;;;;;;;9.43;4.87;;;;;;;33.14;29.20;101187.00;143671;572;50891;-69
2022/06/05 09:52:53;;;;;;;7.57;4.40;;;;;;;33.17;29.40;101194.69;143721;647;47006;-69
2022/06/05 09:55:27;;;;;;;8.77;4.82;;;;;;;33.25;29.20;101190.97;143722;581;47009;-69
2022/06/05 09:58:36;;;;;;;8.43;3.85;;;;;;;33.31;29.01;101186.00;143725;612;47006;-70
2022/06/05 10:01:26;;;;;;;8.27;4.62;;;;;;;33.19;29.73;101179.25;143719;589;47009;-69
2022/06/05 10:03:53;;;;;;;10.73;5.32;;;;;;;33.33;29.93;101175.34;143722;637;47004;-70
2022/06/05 10:06:40;;;;;;;11.38;5.35;;;;;;;33.43;29.78;101163.81;143723;645;46008;-69
2022/06/05 10:09:14;;;;;;;8.32;4.87;;;;;;;33.49;30.05;101165.19;143725;586;47008;-71
2022/06/05 10:12:07;;;;;;;11.43;5.45;;;;;;;33.67;30.14;101170.56;143721;578;47010;-71
2022/06/05 10:15:14;;;;;;;9.32;4.57;;;;;;;33.72;29.95;101179.50;143722;569;47006;-73
2022/06/05 10:17:50;;;;;;;9.48;4.70;;;;;;;33.81;28.93;101161.88;143723;579;47008;-70
2022/06/05 10:20:54;;;;;;;7.72;4.35;;;;;;;33.73;28.49;101160.84;143724;618;47004;-69
2022/06/05 10:23:36;;;;;;;6.15;4.18;;;;;;;33.70;28.47;101161.53;143717;585;48002;-69
2022/06/05 10:26:39;;;;;;;10.65;4.37;;;;;;;33.63;28.94;101153.75;143721;579;47004;-68
2022/06/05 10:29:30;;;;;;;12.65;4.80;;;;;;;33.59;29.26;101155.59;143721;579;47006;-69
2022/06/05 10:32:07;;;;;;;11.32;4.55;;;;;;;33.62;29.77;101154.91;143723;576;47003;-69
2022/06/05 10:35:07;;;;;;;10.85;4.78;;;;;;;33.61;29.03;101156.06;143724;584;46021;-68
2022/06/05 10:37:54;;;;;;;8.43;4.97;;;;;;;33.68;29.54;101152.69;143721;612;47004;-69
2022/06/05 10:40:42;;;;;;;16.60;6.53;;;;;;;33.74;30.36;101140.19;143719;570;49007;-69
2022/06/05 10:43:19;;;;;;;9.13;4.75;;;;;;;33.79;29.58;101145.53;143722;669;47002;-69
2022/06/05 10:46:05;;;;;;;10.45;4.55;;;;;;;33.79;29.69;101128.81;143722;682;47004;-70
2022/06/05 10:49:07;;;;;;;10.40;4.97;;;;;;;33.61;30.50;101144.12;213985;57;49663;-70
2022/06/05 10:52:02;;;;;;;8.07;4.95;;;;;;;33.65;30.76;101140.28;143706;641;49008;-68
2022/06/05 10:54:38;;;;;;;11.48;5.40;;;;;;;33.68;31.39;101134.03;143719;574;47006;-68
2022/06/05 10:57:38;;;;;;;9.23;5.30;;;;;;;33.59;31.91;101129.72;143713;574;48010;-69
2022/06/05 11:00:25;;;;;;;6.93;5.20;;;;;;;33.61;32.44;101114.28;143711;607;47010;-69
2022/06/05 11:03:11;;;;;;;10.38;4.93;;;;;;;33.71;32.71;101124.94;143710;620;48002;-68
2022/06/05 11:06:30;;;;;;;12.25;5.50;;;;;;;33.79;32.90;101128.81;143713;745;51012;-70
2022/06/05 11:09:33;;;;;;;10.50;5.78;;;;;;;33.93;32.82;101127.66;143715;582;47009;-70
2022/06/05 11:15:42;;;;;;;7.70;5.65;;;;;;;33.74;33.56;101108.69;143714;573;47008;-68
2022/06/05 11:18:38;;;;;;;11.40;5.57;;;;;;;33.67;33.48;101109.28;143721;621;47033;-69
2022/06/05 11:21:06;;;;;;;8.65;5.47;;;;;;;33.72;34.71;101103.50;143713;592;47010;-71
2022/06/05 11:23:41;;;;;;;8.63;6.40;;;;;;;33.82;34.15;101114.16;143714;613;47010;-69
2022/06/05 11:26:43;;;;;;;8.40;5.57;;;;;;;33.76;34.85;101109.16;143712;675;47008;-67
2022/06/05 11:29:51;;;;;;;9.73;5.82;;;;;;;33.79;34.86;101100.94;143719;588;47994;-69
2022/06/05 11:32:40;;;;;;;9.43;5.47;;;;;;;33.90;35.51;101094.94;143711;594;48010;-70
2022/06/05 11:35:47;;;;;;;9.68;6.35;;;;;;;33.93;36.26;101105.38;143709;567;48006;-69
2022/06/05 11:39:16;;;;;;;11.85;5.60;;;;;;;33.82;37.08;101091.06;143713;584;47009;-70
2022/06/05 11:42:32;;;;;;;11.30;5.53;;;;;;;33.97;36.62;101092.38;143749;597;46006;-70
2022/06/05 11:45:45;;;;;;;10.95;6.78;;;;;;;34.08;37.26;101087.09;143748;595;47010;-71
2022/06/05 11:49:06;;;;;;;11.63;6.20;;;;;;;34.01;36.98;101093.28;176500;57;96979;-70
2022/06/05 11:51:56;;;;;;;10.07;5.85;;;;;;;33.84;36.96;101080.41;143729;600;47006;-70
2022/06/05 11:54:36;;;;;;;8.98;6.35;;;;;;;33.75;36.14;101085.25;143730;621;47004;-70
2022/06/05 11:57:39;;;;;;;11.40;6.30;;;;;;;33.78;33.65;101090.13;143727;593;47010;-71
2022/06/05 12:00:51;;;;;;;13.15;5.95;;;;;;;33.90;34.31;101086.56;143728;567;47004;-69
2022/06/05 12:03:54;;;;;;;10.43;6.00;;;;;;;33.90;33.71;101081.78;143726;580;47006;-71
2022/06/05 12:06:37;;;;;;;13.67;6.23;;;;;;;34.01;33.93;101071.81;143729;596;47004;-70
2022/06/05 12:09:13;;;;;;;7.47;5.07;;;;;;;34.06;33.87;101070.75;143729;590;47010;-71
2022/06/05 12:12:04;;;;;;;10.18;5.93;;;;;;;34.05;33.37;101071.91;143727;567;47006;-70
2022/06/05 12:14:46;;;;;;;10.25;6.00;;;;;;;34.11;33.30;101067.72;143730;719;47006;-70
2022/06/05 12:17:38;;;;;;;8.43;5.62;;;;;;;34.01;32.92;101060.66;143729;584;47004;-69
2022/06/05 12:20:31;;;;;;;8.77;5.70;;;;;;;34.03;32.94;101053.94;143728;642;47012;-70
2022/06/05 12:23:20;;;;;;;10.88;6.35;;;;;;;34.09;32.87;101058.91;143735;605;47006;-70
2022/06/05 12:26:27;;;;;;;7.30;5.80;;;;;;;34.14;33.05;101055.88;143749;607;46008;-70